createdAt,value
2023-03-31T00:04:59.968Z,11.16
2023-03-31T00:10:16.421Z,11.09
2023-03-31T00:15:19.514Z,11.12
2023-03-31T00:20:22.796Z,11.06
2023-03-31T00:25:24.476Z,11.11
2023-03-31T00:30:26.154Z,11.08
2023-03-31T00:35:27.907Z,10.98
2023-03-31T00:40:29.555Z,11.03
2023-03-31T00:45:31.646Z,11.04
2023-03-31T00:50:37.563Z,10.97
2023-03-31T00:55:54.792Z,10.95
2023-03-31T01:00:58.188Z,11.05
2023-03-31T01:06:06.546Z,10.95
2023-03-31T01:11:11.971Z,11.07
2023-03-31T01:16:13.641Z,11.13
2023-03-31T01:21:47.272Z,11.05
2023-03-31T01:27:26.526Z,11.04
2023-03-31T01:32:55.976Z,10.93
2023-03-31T01:38:12.694Z,10.90
2023-03-31T01:43:33.793Z,10.90
2023-03-31T01:48:55.198Z,10.92
2023-03-31T01:54:18.752Z,10.60
2023-03-31T01:59:27.638Z,10.76
2023-03-31T02:04:35.025Z,10.55
2023-03-31T02:09:42.434Z,10.61
2023-03-31T02:14:47.715Z,10.53
2023-03-31T02:19:53.505Z,10.31
2023-03-31T02:24:59.174Z,10.29
2023-03-31T02:30:01.859Z,10.21
2023-03-31T02:35:06.217Z,10.07
2023-03-31T02:40:15.624Z,9.94
2023-03-31T02:45:39.298Z,9.73
2023-03-31T02:50:59.516Z,9.78
2023-03-31T02:56:38.406Z,9.72
2023-03-31T03:02:01.988Z,9.60
2023-03-31T03:07:19.059Z,9.49
2023-03-31T03:12:32.909Z,9.53
2023-03-31T03:17:45.491Z,9.65
2023-03-31T03:22:47.306Z,9.73
2023-03-31T03:27:48.991Z,9.51
2023-03-31T03:32:50.836Z,9.48
2023-03-31T03:37:52.632Z,9.49
2023-03-31T03:42:54.279Z,9.40
2023-03-31T03:47:56.117Z,9.79
2023-03-31T03:52:57.836Z,9.95
2023-03-31T03:57:59.741Z,9.77
2023-03-31T04:03:01.824Z,10.02
2023-03-31T04:08:04.516Z,9.94
2023-03-31T04:13:06.791Z,10.05
2023-03-31T04:18:11.332Z,10.18
2023-03-31T04:23:14.896Z,10.10
2023-03-31T04:28:16.890Z,9.98
2023-03-31T04:33:19.115Z,10.07
2023-03-31T04:38:23.732Z,10.03
2023-03-31T04:43:25.633Z,9.85
2023-03-31T04:48:27.230Z,9.78
2023-03-31T04:53:29.001Z,10.09
2023-03-31T04:58:30.637Z,10.07
2023-03-31T05:03:32.677Z,10.20
2023-03-31T05:08:34.539Z,10.09
2023-03-31T05:13:36.420Z,10.22
2023-03-31T05:18:38.198Z,9.98
2023-03-31T05:23:39.957Z,10.16
2023-03-31T05:28:41.826Z,10.49
2023-03-31T05:33:43.719Z,10.28
2023-03-31T05:38:46.147Z,10.37
2023-03-31T05:43:47.984Z,10.44
2023-03-31T05:48:49.852Z,10.54
2023-03-31T05:53:51.703Z,10.80
2023-03-31T05:58:53.826Z,10.77
2023-03-31T06:03:56.384Z,10.82
2023-03-31T06:08:58.227Z,11.04
2023-03-31T06:14:00.283Z,11.08
2023-03-31T06:19:02.220Z,11.15
2023-03-31T06:24:04.050Z,11.11
2023-03-31T06:29:06.126Z,11.22
2023-03-31T06:34:07.912Z,11.34
2023-03-31T06:39:09.784Z,11.29
2023-03-31T06:44:11.593Z,11.23
2023-03-31T06:49:13.385Z,11.79
2023-03-31T06:54:15.226Z,12.63
2023-03-31T06:59:17.140Z,12.79
2023-03-31T07:04:18.889Z,12.91
2023-03-31T07:09:23.361Z,12.71
2023-03-31T07:14:25.075Z,12.57
2023-03-31T07:19:26.759Z,12.60
2023-03-31T07:24:30.487Z,12.72
2023-03-31T07:29:32.205Z,12.97
2023-03-31T07:34:36.215Z,13.35
2023-03-31T07:39:39.136Z,13.66
2023-03-31T07:44:40.889Z,14.07
2023-03-31T07:49:42.565Z,14.52
2023-03-31T07:54:44.211Z,14.45
2023-03-31T07:59:47.090Z,14.36
2023-03-31T08:04:48.733Z,14.33
2023-03-31T08:09:50.542Z,14.28
2023-03-31T08:14:52.443Z,13.93
2023-03-31T08:19:54.691Z,13.94
2023-03-31T08:24:56.368Z,13.87
2023-03-31T08:29:58.077Z,13.98
2023-03-31T08:35:00.551Z,13.84
2023-03-31T08:40:05.264Z,13.84
2023-03-31T08:45:27.963Z,13.71
2023-03-31T08:50:34.698Z,13.70
2023-03-31T08:55:49.992Z,13.58
2023-03-31T09:00:55.534Z,13.41
2023-03-31T09:06:07.937Z,13.48
2023-03-31T09:11:09.664Z,13.23
2023-03-31T09:16:24.458Z,13.09
2023-03-31T09:21:32.029Z,13.06
2023-03-31T09:26:39.250Z,13.02
2023-03-31T09:31:43.893Z,12.91
2023-03-31T09:36:45.807Z,12.82
2023-03-31T09:41:50.822Z,12.94
2023-03-31T09:46:53.857Z,12.83
2023-03-31T09:52:03.528Z,12.80
2023-03-31T09:57:23.332Z,12.90
2023-03-31T10:02:39.020Z,12.86
2023-03-31T10:07:42.298Z,12.84
2023-03-31T10:12:52.059Z,12.77
2023-03-31T10:17:55.356Z,12.74
2023-03-31T10:23:03.539Z,12.68
2023-03-31T10:28:15.564Z,12.80
2023-03-31T10:33:23.791Z,12.56
2023-03-31T10:38:40.140Z,12.68
2023-03-31T10:43:47.488Z,12.76
2023-03-31T10:48:51.351Z,12.78
2023-03-31T10:53:55.829Z,12.76
2023-03-31T10:59:21.712Z,12.69
2023-03-31T11:04:43.277Z,12.67
2023-03-31T11:10:20.372Z,12.78
2023-03-31T11:15:44.314Z,12.81
2023-03-31T11:21:05.858Z,12.81
2023-03-31T11:26:17.233Z,12.62
2023-03-31T11:31:24.837Z,12.35
2023-03-31T11:36:45.071Z,12.49
2023-03-31T11:41:58.235Z,12.38
2023-03-31T11:47:07.022Z,12.24
2023-03-31T11:52:14.765Z,12.01
2023-03-31T11:57:22.210Z,11.82
2023-03-31T12:02:39.928Z,11.76
2023-03-31T12:07:49.086Z,11.58
2023-03-31T12:13:23.041Z,11.49
2023-03-31T12:18:28.332Z,11.41
2023-03-31T12:23:36.006Z,11.18
2023-03-31T12:28:40.649Z,11.19
2023-03-31T12:33:46.616Z,11.17
2023-03-31T12:39:08.831Z,11.42
2023-03-31T12:44:29.238Z,11.38
2023-03-31T12:49:50.258Z,11.33
2023-03-31T12:55:00.575Z,11.31
2023-03-31T13:00:12.602Z,11.07
2023-03-31T13:05:36.213Z,11.23
2023-03-31T13:10:58.662Z,11.21
2023-03-31T13:16:02.024Z,11.15
2023-03-31T13:21:05.761Z,10.89
2023-03-31T13:26:33.383Z,11.24
2023-03-31T13:32:00.687Z,11.43
2023-03-31T13:37:30.888Z,11.75
2023-03-31T13:42:51.037Z,11.94
2023-03-31T13:48:21.634Z,12.00
2023-03-31T13:53:39.467Z,12.02
2023-03-31T13:58:59.280Z,11.97
2023-03-31T14:04:16.079Z,11.90
2023-03-31T14:09:24.038Z,11.82
2023-03-31T14:14:26.634Z,11.61
2023-03-31T14:19:54.983Z,11.94
2023-03-31T14:25:02.641Z,12.19
2023-03-31T14:30:13.576Z,12.36
2023-03-31T14:35:42.934Z,12.59
2023-03-31T14:40:57.821Z,12.73
2023-03-31T14:46:23.193Z,12.55
2023-03-31T14:51:28.721Z,12.81
2023-03-31T14:56:41.142Z,12.84
2023-03-31T15:01:46.383Z,12.80
2023-03-31T15:06:49.865Z,12.68
2023-03-31T15:11:59.268Z,12.63
2023-03-31T15:17:01.312Z,12.81
2023-03-31T15:22:16.403Z,12.60
2023-03-31T15:27:36.670Z,12.25
2023-03-31T15:32:40.915Z,12.58
2023-03-31T15:37:44.136Z,12.37
2023-03-31T15:43:01.474Z,12.29
2023-03-31T15:48:28.719Z,12.25
2023-03-31T15:53:39.132Z,12.26
2023-03-31T15:58:54.462Z,12.50
2023-03-31T16:03:56.871Z,12.84
2023-03-31T16:09:09.017Z,12.87
2023-03-31T16:14:20.290Z,12.77
2023-03-31T16:19:25.446Z,12.47
2023-03-31T16:24:32.919Z,12.36
2023-03-31T16:29:35.901Z,12.17
2023-03-31T16:34:56.794Z,11.98
2023-03-31T16:39:58.490Z,12.00
2023-03-31T16:45:13.909Z,11.83
2023-03-31T16:50:16.592Z,11.70
2023-03-31T16:55:18.294Z,11.68
2023-03-31T17:00:20.549Z,11.63
2023-03-31T17:05:22.434Z,11.47
2023-03-31T17:10:24.364Z,11.36
2023-03-31T17:15:26.650Z,11.13
2023-03-31T17:20:28.372Z,10.94
2023-03-31T17:25:30.786Z,10.67
2023-03-31T17:30:35.633Z,10.58
2023-03-31T17:35:38.159Z,10.54
2023-03-31T17:40:40.940Z,10.42
2023-03-31T17:45:42.700Z,10.33
2023-03-31T17:50:45.051Z,10.24
2023-03-31T17:55:46.876Z,10.19
2023-03-31T18:00:49.191Z,10.27
2023-03-31T18:05:51.191Z,10.07
2023-03-31T18:10:52.974Z,9.91
2023-03-31T18:15:55.054Z,9.85
2023-03-31T18:20:57.297Z,9.72
2023-03-31T18:25:59.146Z,9.72
2023-03-31T18:31:05.581Z,9.73
2023-03-31T18:36:13.446Z,9.82
2023-03-31T18:41:17.755Z,9.89
2023-03-31T18:46:19.895Z,9.74
2023-03-31T18:51:23.865Z,9.97
2023-03-31T18:56:25.709Z,10.05
2023-03-31T19:01:28.637Z,10.02
2023-03-31T19:06:30.294Z,10.14
2023-03-31T19:11:32.316Z,10.30
2023-03-31T19:16:41.497Z,10.41
2023-03-31T19:21:44.047Z,10.59
2023-03-31T19:26:46.482Z,10.70
2023-03-31T19:31:48.620Z,10.68
2023-03-31T19:36:50.950Z,10.58
2023-03-31T19:41:52.686Z,10.73
2023-03-31T19:46:54.407Z,10.82
2023-03-31T19:51:56.547Z,10.76
2023-03-31T19:56:58.228Z,10.78
2023-03-31T20:02:02.439Z,10.75
2023-03-31T20:07:04.337Z,10.52
2023-03-31T20:12:06.220Z,10.68
2023-03-31T20:17:08.148Z,10.55
2023-03-31T20:22:09.872Z,10.57
2023-03-31T20:27:11.636Z,10.46
2023-03-31T20:32:17.162Z,10.37
2023-03-31T20:37:19.044Z,10.19
2023-03-31T20:42:21.173Z,10.13
2023-03-31T20:47:22.829Z,9.86
2023-03-31T20:52:24.477Z,9.93
2023-03-31T20:57:26.506Z,9.97
2023-03-31T21:02:28.353Z,10.00
2023-03-31T21:07:31.137Z,9.91
2023-03-31T21:12:33.731Z,9.84
2023-03-31T21:17:35.451Z,9.96
2023-03-31T21:22:37.174Z,9.89
2023-03-31T21:27:38.855Z,10.01
2023-03-31T21:32:40.745Z,9.97
2023-03-31T21:37:42.432Z,9.98
2023-03-31T21:42:44.316Z,10.00
2023-03-31T21:47:45.994Z,9.91
2023-03-31T21:52:48.044Z,9.95
2023-03-31T21:57:49.795Z,10.04
2023-03-31T22:02:52.465Z,10.07
2023-03-31T22:07:57.240Z,10.01
2023-03-31T22:12:58.890Z,10.11
2023-03-31T22:18:01.712Z,10.08
2023-03-31T22:23:03.984Z,10.05
2023-03-31T22:28:07.352Z,10.04
2023-03-31T22:33:09.252Z,10.00
2023-03-31T22:38:13.999Z,10.10
2023-03-31T22:43:15.857Z,9.99
2023-03-31T22:48:18.285Z,9.98
2023-03-31T22:53:20.042Z,9.88
2023-03-31T22:58:22.676Z,9.91
2023-03-31T23:03:24.983Z,9.91
2023-03-31T23:08:27.204Z,9.76
2023-03-31T23:13:30.084Z,9.82
2023-03-31T23:18:31.834Z,9.82
2023-03-31T23:23:33.934Z,9.91
2023-03-31T23:28:37.143Z,9.86
2023-03-31T23:33:38.890Z,9.81
2023-03-31T23:38:40.827Z,9.79
2023-03-31T23:43:43.501Z,9.71
2023-03-31T23:48:45.568Z,9.64
2023-03-31T23:53:47.478Z,9.64
2023-03-31T23:58:49.154Z,9.66
